sensor_id;sensor_type;location;lat;lon;timestamp;P1;durP1;ratioP1;P2;durP2;ratioP2
55330;SDS011;58851;42.984;20.336;2022-07-06T00:01:26;11.63;;;7.03;;
55330;SDS011;58851;42.984;20.336;2022-07-06T00:03:52;11.35;;;5.80;;
55330;SDS011;58851;42.984;20.336;2022-07-06T00:06:17;8.50;;;4.60;;
55330;SDS011;58851;42.984;20.336;2022-07-06T00:08:43;10.75;;;6.55;;
55330;SDS011;58851;42.984;20.336;2022-07-06T00:11:09;9.13;;;5.30;;
55330;SDS011;58851;42.984;20.336;2022-07-06T00:13:36;11.98;;;6.47;;
55330;SDS011;58851;42.984;20.336;2022-07-06T00:16:02;7.43;;;5.82;;
55330;SDS011;58851;42.984;20.336;2022-07-06T00:18:28;6.78;;;4.20;;
55330;SDS011;58851;42.984;20.336;2022-07-06T00:20:54;8.43;;;4.93;;
55330;SDS011;58851;42.984;20.336;2022-07-06T00:23:19;517.72;;;49.47;;
55330;SDS011;58851;42.984;20.336;2022-07-06T00:25:45;15.90;;;9.20;;
55330;SDS011;58851;42.984;20.336;2022-07-06T00:28:13;13.73;;;8.38;;
55330;SDS011;58851;42.984;20.336;2022-07-06T00:30:39;12.10;;;8.77;;
55330;SDS011;58851;42.984;20.336;2022-07-06T00:33:05;11.90;;;8.52;;
55330;SDS011;58851;42.984;20.336;2022-07-06T00:35:32;15.02;;;7.80;;
55330;SDS011;58851;42.984;20.336;2022-07-06T00:37:58;56.30;;;11.55;;
55330;SDS011;58851;42.984;20.336;2022-07-06T00:40:23;595.72;;;332.00;;
55330;SDS011;58851;42.984;20.336;2022-07-06T00:42:49;1999.90;;;999.90;;
55330;SDS011;58851;42.984;20.336;2022-07-06T00:45:16;1999.90;;;999.90;;
55330;SDS011;58851;42.984;20.336;2022-07-06T00:47:43;1999.90;;;999.90;;
55330;SDS011;58851;42.984;20.336;2022-07-06T00:50:10;1999.90;;;999.90;;
55330;SDS011;58851;42.984;20.336;2022-07-06T00:52:41;1999.90;;;999.90;;
55330;SDS011;58851;42.984;20.336;2022-07-06T00:55:10;1999.90;;;999.90;;
55330;SDS011;58851;42.984;20.336;2022-07-06T00:57:37;14.60;;;8.07;;
55330;SDS011;58851;42.984;20.336;2022-07-06T01:00:05;15.90;;;5.75;;
55330;SDS011;58851;42.984;20.336;2022-07-06T01:02:36;13.50;;;7.43;;
55330;SDS011;58851;42.984;20.336;2022-07-06T01:05:06;14.93;;;9.68;;
55330;SDS011;58851;42.984;20.336;2022-07-06T01:07:34;16.42;;;9.90;;
55330;SDS011;58851;42.984;20.336;2022-07-06T01:10:04;18.15;;;8.65;;
55330;SDS011;58851;42.984;20.336;2022-07-06T01:12:36;12.85;;;7.15;;
55330;SDS011;58851;42.984;20.336;2022-07-06T01:15:04;9.57;;;6.97;;
55330;SDS011;58851;42.984;20.336;2022-07-06T01:17:32;10.93;;;7.35;;
55330;SDS011;58851;42.984;20.336;2022-07-06T01:20:07;11.98;;;8.20;;
55330;SDS011;58851;42.984;20.336;2022-07-06T01:22:36;12.23;;;7.93;;
55330;SDS011;58851;42.984;20.336;2022-07-06T01:25:02;13.18;;;7.00;;
55330;SDS011;58851;42.984;20.336;2022-07-06T01:27:29;10.20;;;6.70;;
55330;SDS011;58851;42.984;20.336;2022-07-06T01:29:55;13.70;;;6.50;;
55330;SDS011;58851;42.984;20.336;2022-07-06T01:32:21;7.85;;;5.35;;
55330;SDS011;58851;42.984;20.336;2022-07-06T01:34:47;9.65;;;5.28;;
55330;SDS011;58851;42.984;20.336;2022-07-06T01:37:12;9.45;;;6.22;;
55330;SDS011;58851;42.984;20.336;2022-07-06T01:39:38;9.95;;;5.35;;
55330;SDS011;58851;42.984;20.336;2022-07-06T01:42:04;11.38;;;6.75;;
55330;SDS011;58851;42.984;20.336;2022-07-06T01:44:30;10.65;;;7.45;;
55330;SDS011;58851;42.984;20.336;2022-07-06T01:46:56;12.30;;;6.65;;
55330;SDS011;58851;42.984;20.336;2022-07-06T01:49:22;15.15;;;6.35;;
55330;SDS011;58851;42.984;20.336;2022-07-06T01:51:48;16.30;;;8.15;;
55330;SDS011;58851;42.984;20.336;2022-07-06T01:54:13;13.25;;;7.13;;
55330;SDS011;58851;42.984;20.336;2022-07-06T01:56:40;14.00;;;7.47;;
55330;SDS011;58851;42.984;20.336;2022-07-06T01:59:05;11.40;;;6.20;;
55330;SDS011;58851;42.984;20.336;2022-07-06T02:01:31;15.85;;;8.82;;
55330;SDS011;58851;42.984;20.336;2022-07-06T02:03:57;9.80;;;7.07;;
55330;SDS011;58851;42.984;20.336;2022-07-06T02:06:23;15.32;;;8.10;;
55330;SDS011;58851;42.984;20.336;2022-07-06T02:08:49;9.90;;;6.70;;
55330;SDS011;58851;42.984;20.336;2022-07-06T02:11:16;14.43;;;7.05;;
55330;SDS011;58851;42.984;20.336;2022-07-06T02:13:42;12.70;;;8.32;;
55330;SDS011;58851;42.984;20.336;2022-07-06T02:16:08;12.68;;;7.28;;
55330;SDS011;58851;42.984;20.336;2022-07-06T02:18:34;10.52;;;6.82;;
55330;SDS011;58851;42.984;20.336;2022-07-06T02:20:59;11.00;;;6.22;;
55330;SDS011;58851;42.984;20.336;2022-07-06T02:23:25;11.57;;;6.70;;
55330;SDS011;58851;42.984;20.336;2022-07-06T02:25:51;11.73;;;6.95;;
55330;SDS011;58851;42.984;20.336;2022-07-06T02:28:17;9.55;;;6.97;;
55330;SDS011;58851;42.984;20.336;2022-07-06T02:30:43;11.85;;;7.40;;
55330;SDS011;58851;42.984;20.336;2022-07-06T02:33:09;10.85;;;7.60;;
55330;SDS011;58851;42.984;20.336;2022-07-06T02:35:34;9.07;;;6.32;;
55330;SDS011;58851;42.984;20.336;2022-07-06T02:38:02;11.85;;;6.00;;
55330;SDS011;58851;42.984;20.336;2022-07-06T02:40:28;10.95;;;7.07;;
55330;SDS011;58851;42.984;20.336;2022-07-06T02:42:54;12.35;;;6.55;;
55330;SDS011;58851;42.984;20.336;2022-07-06T02:45:19;9.48;;;5.75;;
55330;SDS011;58851;42.984;20.336;2022-07-06T02:47:45;9.25;;;5.60;;
55330;SDS011;58851;42.984;20.336;2022-07-06T02:50:11;8.82;;;5.45;;
55330;SDS011;58851;42.984;20.336;2022-07-06T02:52:37;10.57;;;5.95;;
55330;SDS011;58851;42.984;20.336;2022-07-06T02:55:03;13.43;;;6.75;;
55330;SDS011;58851;42.984;20.336;2022-07-06T02:57:29;11.38;;;7.22;;
55330;SDS011;58851;42.984;20.336;2022-07-06T02:59:54;13.10;;;6.63;;
55330;SDS011;58851;42.984;20.336;2022-07-06T03:02:20;7.28;;;4.00;;
55330;SDS011;58851;42.984;20.336;2022-07-06T03:04:46;233.10;;;36.67;;
55330;SDS011;58851;42.984;20.336;2022-07-06T03:07:12;1999.90;;;999.90;;
55330;SDS011;58851;42.984;20.336;2022-07-06T03:09:37;1999.90;;;999.90;;
55330;SDS011;58851;42.984;20.336;2022-07-06T03:12:04;1999.90;;;999.90;;
55330;SDS011;58851;42.984;20.336;2022-07-06T03:14:30;1999.90;;;999.90;;
55330;SDS011;58851;42.984;20.336;2022-07-06T03:16:55;1999.90;;;999.90;;
55330;SDS011;58851;42.984;20.336;2022-07-06T03:19:21;1999.90;;;999.90;;
55330;SDS011;58851;42.984;20.336;2022-07-06T03:21:47;1999.90;;;999.90;;
55330;SDS011;58851;42.984;20.336;2022-07-06T03:24:13;1999.90;;;999.90;;
55330;SDS011;58851;42.984;20.336;2022-07-06T03:26:38;1999.90;;;999.90;;
55330;SDS011;58851;42.984;20.336;2022-07-06T03:29:04;1999.90;;;999.90;;
55330;SDS011;58851;42.984;20.336;2022-07-06T03:31:30;1999.90;;;999.90;;
55330;SDS011;58851;42.984;20.336;2022-07-06T03:33:56;1999.90;;;999.90;;
55330;SDS011;58851;42.984;20.336;2022-07-06T03:36:22;1999.90;;;999.90;;
55330;SDS011;58851;42.984;20.336;2022-07-06T03:38:48;1999.90;;;999.90;;
55330;SDS011;58851;42.984;20.336;2022-07-06T03:41:14;1999.90;;;999.90;;
55330;SDS011;58851;42.984;20.336;2022-07-06T03:43:40;1999.90;;;999.90;;
55330;SDS011;58851;42.984;20.336;2022-07-06T03:46:05;1999.90;;;999.90;;
55330;SDS011;58851;42.984;20.336;2022-07-06T03:48:31;1999.90;;;999.90;;
55330;SDS011;58851;42.984;20.336;2022-07-06T03:50:57;1999.90;;;999.90;;
55330;SDS011;58851;42.984;20.336;2022-07-06T03:53:23;1999.90;;;999.90;;
55330;SDS011;58851;42.984;20.336;2022-07-06T03:55:48;1999.90;;;999.90;;
55330;SDS011;58851;42.984;20.336;2022-07-06T03:58:33;1999.90;;;999.90;;
55330;SDS011;58851;42.984;20.336;2022-07-06T04:00:59;1999.90;;;999.90;;
55330;SDS011;58851;42.984;20.336;2022-07-06T04:03:25;1999.90;;;999.90;;
55330;SDS011;58851;42.984;20.336;2022-07-06T04:05:50;1999.90;;;999.90;;
55330;SDS011;58851;42.984;20.336;2022-07-06T04:08:17;1999.90;;;999.90;;
55330;SDS011;58851;42.984;20.336;2022-07-06T04:10:42;1999.90;;;999.90;;
55330;SDS011;58851;42.984;20.336;2022-07-06T04:13:08;1999.90;;;999.90;;
55330;SDS011;58851;42.984;20.336;2022-07-06T04:15:34;1999.90;;;999.90;;
55330;SDS011;58851;42.984;20.336;2022-07-06T04:18:00;1999.90;;;999.90;;
55330;SDS011;58851;42.984;20.336;2022-07-06T04:20:25;1999.90;;;999.90;;
55330;SDS011;58851;42.984;20.336;2022-07-06T04:22:51;1999.90;;;999.90;;
55330;SDS011;58851;42.984;20.336;2022-07-06T04:25:17;1999.90;;;999.90;;
55330;SDS011;58851;42.984;20.336;2022-07-06T04:27:43;1999.90;;;999.90;;
55330;SDS011;58851;42.984;20.336;2022-07-06T04:30:10;1999.90;;;999.90;;
55330;SDS011;58851;42.984;20.336;2022-07-06T04:32:36;1999.90;;;999.90;;
55330;SDS011;58851;42.984;20.336;2022-07-06T04:35:03;1999.90;;;999.90;;
55330;SDS011;58851;42.984;20.336;2022-07-06T04:37:30;1999.90;;;999.90;;
55330;SDS011;58851;42.984;20.336;2022-07-06T04:39:56;1999.90;;;999.90;;
55330;SDS011;58851;42.984;20.336;2022-07-06T04:42:22;1999.90;;;999.90;;
55330;SDS011;58851;42.984;20.336;2022-07-06T04:44:49;1999.90;;;999.90;;
55330;SDS011;58851;42.984;20.336;2022-07-06T04:47:16;1999.90;;;999.90;;
55330;SDS011;58851;42.984;20.336;2022-07-06T04:49:43;1999.90;;;999.90;;
55330;SDS011;58851;42.984;20.336;2022-07-06T04:52:09;1999.90;;;999.90;;
55330;SDS011;58851;42.984;20.336;2022-07-06T04:54:34;1999.90;;;999.90;;
55330;SDS011;58851;42.984;20.336;2022-07-06T04:57:01;1999.90;;;999.90;;
55330;SDS011;58851;42.984;20.336;2022-07-06T04:59:26;1999.90;;;999.90;;
55330;SDS011;58851;42.984;20.336;2022-07-06T05:01:52;1999.90;;;999.90;;
55330;SDS011;58851;42.984;20.336;2022-07-06T05:04:18;1999.90;;;999.90;;
55330;SDS011;58851;42.984;20.336;2022-07-06T05:06:44;1999.90;;;999.90;;
55330;SDS011;58851;42.984;20.336;2022-07-06T05:09:12;1999.90;;;999.90;;
55330;SDS011;58851;42.984;20.336;2022-07-06T05:11:38;1999.90;;;999.90;;
55330;SDS011;58851;42.984;20.336;2022-07-06T05:14:05;1999.90;;;999.90;;
55330;SDS011;58851;42.984;20.336;2022-07-06T05:16:31;1999.90;;;999.90;;
55330;SDS011;58851;42.984;20.336;2022-07-06T05:18:57;1999.90;;;999.90;;
55330;SDS011;58851;42.984;20.336;2022-07-06T05:21:23;1999.90;;;999.90;;
55330;SDS011;58851;42.984;20.336;2022-07-06T05:23:49;1999.90;;;999.90;;
55330;SDS011;58851;42.984;20.336;2022-07-06T05:26:14;1999.90;;;999.90;;
55330;SDS011;58851;42.984;20.336;2022-07-06T05:28:40;1999.90;;;999.90;;
55330;SDS011;58851;42.984;20.336;2022-07-06T05:31:06;1999.90;;;999.90;;
55330;SDS011;58851;42.984;20.336;2022-07-06T05:33:32;1999.90;;;999.90;;
55330;SDS011;58851;42.984;20.336;2022-07-06T05:35:57;1999.90;;;999.90;;
55330;SDS011;58851;42.984;20.336;2022-07-06T05:38:23;1999.90;;;999.90;;
55330;SDS011;58851;42.984;20.336;2022-07-06T05:40:49;1999.90;;;999.90;;
55330;SDS011;58851;42.984;20.336;2022-07-06T05:43:15;1999.90;;;999.90;;
55330;SDS011;58851;42.984;20.336;2022-07-06T05:45:42;1999.90;;;999.90;;
55330;SDS011;58851;42.984;20.336;2022-07-06T05:48:08;1999.90;;;999.90;;
55330;SDS011;58851;42.984;20.336;2022-07-06T05:50:52;1999.90;;;999.90;;
55330;SDS011;58851;42.984;20.336;2022-07-06T05:53:18;1999.90;;;999.90;;
55330;SDS011;58851;42.984;20.336;2022-07-06T05:55:44;1999.90;;;999.90;;
55330;SDS011;58851;42.984;20.336;2022-07-06T05:58:11;1999.90;;;999.90;;
55330;SDS011;58851;42.984;20.336;2022-07-06T06:00:36;1999.90;;;999.90;;
55330;SDS011;58851;42.984;20.336;2022-07-06T06:03:02;1999.90;;;999.90;;
55330;SDS011;58851;42.984;20.336;2022-07-06T06:05:28;1999.90;;;999.90;;
55330;SDS011;58851;42.984;20.336;2022-07-06T06:07:54;1999.90;;;999.90;;
55330;SDS011;58851;42.984;20.336;2022-07-06T06:10:20;1999.90;;;999.90;;
55330;SDS011;58851;42.984;20.336;2022-07-06T06:12:49;1999.90;;;999.90;;
55330;SDS011;58851;42.984;20.336;2022-07-06T06:15:15;1999.90;;;999.90;;
55330;SDS011;58851;42.984;20.336;2022-07-06T06:17:42;1999.90;;;999.90;;
55330;SDS011;58851;42.984;20.336;2022-07-06T06:20:09;1999.90;;;999.90;;
55330;SDS011;58851;42.984;20.336;2022-07-06T06:22:47;1999.90;;;999.90;;
55330;SDS011;58851;42.984;20.336;2022-07-06T06:25:15;1999.90;;;999.90;;
55330;SDS011;58851;42.984;20.336;2022-07-06T06:27:43;1999.90;;;999.90;;
55330;SDS011;58851;42.984;20.336;2022-07-06T06:30:09;29.35;;;27.95;;
55330;SDS011;58851;42.984;20.336;2022-07-06T06:32:36;42.75;;;40.75;;
55330;SDS011;58851;42.984;20.336;2022-07-06T06:35:02;1999.90;;;999.90;;
55330;SDS011;58851;42.984;20.336;2022-07-06T06:37:29;1999.90;;;999.90;;
55330;SDS011;58851;42.984;20.336;2022-07-06T06:39:55;1999.90;;;999.90;;
55330;SDS011;58851;42.984;20.336;2022-07-06T06:42:21;1999.90;;;999.90;;
55330;SDS011;58851;42.984;20.336;2022-07-06T06:44:46;1999.90;;;999.90;;
55330;SDS011;58851;42.984;20.336;2022-07-06T06:47:12;1999.90;;;999.90;;
55330;SDS011;58851;42.984;20.336;2022-07-06T06:49:38;1999.90;;;999.90;;
55330;SDS011;58851;42.984;20.336;2022-07-06T06:52:04;1999.90;;;999.90;;
55330;SDS011;58851;42.984;20.336;2022-07-06T06:54:30;1999.90;;;999.90;;
55330;SDS011;58851;42.984;20.336;2022-07-06T06:56:56;1999.90;;;999.90;;
55330;SDS011;58851;42.984;20.336;2022-07-06T06:59:22;1999.90;;;999.90;;
55330;SDS011;58851;42.984;20.336;2022-07-06T07:01:48;1999.90;;;999.90;;
55330;SDS011;58851;42.984;20.336;2022-07-06T07:04:14;1999.90;;;999.90;;
55330;SDS011;58851;42.984;20.336;2022-07-06T07:06:40;1999.90;;;999.90;;
55330;SDS011;58851;42.984;20.336;2022-07-06T07:09:06;1999.90;;;999.90;;
55330;SDS011;58851;42.984;20.336;2022-07-06T07:11:32;1999.90;;;999.90;;
55330;SDS011;58851;42.984;20.336;2022-07-06T07:13:57;1999.90;;;999.90;;
55330;SDS011;58851;42.984;20.336;2022-07-06T07:16:25;1999.90;;;999.90;;
55330;SDS011;58851;42.984;20.336;2022-07-06T07:18:52;1999.90;;;999.90;;
55330;SDS011;58851;42.984;20.336;2022-07-06T07:21:18;1999.90;;;999.90;;
55330;SDS011;58851;42.984;20.336;2022-07-06T07:23:44;1999.90;;;999.90;;
55330;SDS011;58851;42.984;20.336;2022-07-06T07:26:10;1999.90;;;999.90;;
55330;SDS011;58851;42.984;20.336;2022-07-06T07:28:36;1999.90;;;999.90;;
55330;SDS011;58851;42.984;20.336;2022-07-06T07:31:02;1999.90;;;999.90;;
55330;SDS011;58851;42.984;20.336;2022-07-06T07:33:29;1999.90;;;999.90;;
55330;SDS011;58851;42.984;20.336;2022-07-06T07:35:55;1999.90;;;999.90;;
55330;SDS011;58851;42.984;20.336;2022-07-06T07:38:21;1999.90;;;999.90;;
55330;SDS011;58851;42.984;20.336;2022-07-06T07:40:46;1999.90;;;999.90;;
55330;SDS011;58851;42.984;20.336;2022-07-06T07:43:12;1999.90;;;999.90;;
55330;SDS011;58851;42.984;20.336;2022-07-06T07:45:38;1999.90;;;999.90;;
55330;SDS011;58851;42.984;20.336;2022-07-06T07:48:05;1999.90;;;999.90;;
55330;SDS011;58851;42.984;20.336;2022-07-06T07:50:31;1999.90;;;999.90;;
55330;SDS011;58851;42.984;20.336;2022-07-06T07:52:57;1999.90;;;999.90;;
55330;SDS011;58851;42.984;20.336;2022-07-06T07:55:23;20.33;;;19.17;;
55330;SDS011;58851;42.984;20.336;2022-07-06T07:57:49;9.15;;;8.65;;
55330;SDS011;58851;42.984;20.336;2022-07-06T08:00:14;3.03;;;2.72;;
55330;SDS011;58851;42.984;20.336;2022-07-06T08:02:40;1.77;;;1.50;;
55330;SDS011;58851;42.984;20.336;2022-07-06T08:05:06;0.60;;;0.50;;
55330;SDS011;58851;42.984;20.336;2022-07-06T08:07:32;0.85;;;0.75;;
55330;SDS011;58851;42.984;20.336;2022-07-06T08:09:58;0.90;;;0.80;;
55330;SDS011;58851;42.984;20.336;2022-07-06T08:12:24;2.30;;;1.60;;
55330;SDS011;58851;42.984;20.336;2022-07-06T08:14:51;17.63;;;16.52;;
55330;SDS011;58851;42.984;20.336;2022-07-06T08:17:17;55.53;;;52.78;;
55330;SDS011;58851;42.984;20.336;2022-07-06T08:19:42;232.80;;;77.70;;
55330;SDS011;58851;42.984;20.336;2022-07-06T08:22:08;7.72;;;4.68;;
55330;SDS011;58851;42.984;20.336;2022-07-06T08:24:34;7.20;;;4.35;;
55330;SDS011;58851;42.984;20.336;2022-07-06T08:27:00;8.20;;;4.15;;
55330;SDS011;58851;42.984;20.336;2022-07-06T08:29:28;6.63;;;4.45;;
55330;SDS011;58851;42.984;20.336;2022-07-06T08:31:54;9.65;;;6.40;;
55330;SDS011;58851;42.984;20.336;2022-07-06T08:34:20;11.27;;;6.15;;
55330;SDS011;58851;42.984;20.336;2022-07-06T08:36:46;9.85;;;7.15;;
55330;SDS011;58851;42.984;20.336;2022-07-06T08:39:12;9.73;;;8.73;;
55330;SDS011;58851;42.984;20.336;2022-07-06T08:41:38;7.03;;;5.97;;
55330;SDS011;58851;42.984;20.336;2022-07-06T08:44:07;7.65;;;5.25;;
55330;SDS011;58851;42.984;20.336;2022-07-06T08:46:34;6.95;;;4.20;;
55330;SDS011;58851;42.984;20.336;2022-07-06T08:49:03;6.28;;;3.97;;
55330;SDS011;58851;42.984;20.336;2022-07-06T08:51:31;20.00;;;4.18;;
55330;SDS011;58851;42.984;20.336;2022-07-06T08:53:57;5.57;;;3.05;;
55330;SDS011;58851;42.984;20.336;2022-07-06T08:56:23;6.43;;;3.60;;
55330;SDS011;58851;42.984;20.336;2022-07-06T08:58:50;126.18;;;119.63;;
55330;SDS011;58851;42.984;20.336;2022-07-06T09:01:17;6.32;;;2.72;;
55330;SDS011;58851;42.984;20.336;2022-07-06T09:03:43;6.72;;;3.42;;
55330;SDS011;58851;42.984;20.336;2022-07-06T09:06:13;7.60;;;3.22;;
55330;SDS011;58851;42.984;20.336;2022-07-06T09:08:44;4.90;;;3.03;;
55330;SDS011;58851;42.984;20.336;2022-07-06T09:11:11;7.38;;;4.13;;
55330;SDS011;58851;42.984;20.336;2022-07-06T09:13:37;5.53;;;3.45;;
55330;SDS011;58851;42.984;20.336;2022-07-06T09:16:25;6.18;;;3.30;;
55330;SDS011;58851;42.984;20.336;2022-07-06T09:18:53;6.07;;;4.22;;
55330;SDS011;58851;42.984;20.336;2022-07-06T09:21:26;5.38;;;3.33;;
55330;SDS011;58851;42.984;20.336;2022-07-06T09:23:58;5.50;;;3.58;;
55330;SDS011;58851;42.984;20.336;2022-07-06T09:26:25;5.10;;;3.13;;
55330;SDS011;58851;42.984;20.336;2022-07-06T09:28:51;6.60;;;3.20;;
55330;SDS011;58851;42.984;20.336;2022-07-06T09:31:19;5.75;;;3.55;;
55330;SDS011;58851;42.984;20.336;2022-07-06T09:39:28;4.57;;;3.00;;
55330;SDS011;58851;42.984;20.336;2022-07-06T09:41:56;4.85;;;2.97;;
55330;SDS011;58851;42.984;20.336;2022-07-06T09:44:30;3.75;;;2.75;;
55330;SDS011;58851;42.984;20.336;2022-07-06T09:46:57;4.00;;;3.03;;
55330;SDS011;58851;42.984;20.336;2022-07-06T09:49:25;19.45;;;4.07;;
55330;SDS011;58851;42.984;20.336;2022-07-06T09:51:52;1999.90;;;999.90;;
55330;SDS011;58851;42.984;20.336;2022-07-06T09:54:19;1999.90;;;999.90;;
55330;SDS011;58851;42.984;20.336;2022-07-06T09:56:47;1999.90;;;999.90;;
55330;SDS011;58851;42.984;20.336;2022-07-06T09:59:18;12.27;;;11.05;;
55330;SDS011;58851;42.984;20.336;2022-07-06T10:01:46;1092.97;;;535.13;;
55330;SDS011;58851;42.984;20.336;2022-07-06T10:04:15;1999.90;;;999.90;;
55330;SDS011;58851;42.984;20.336;2022-07-06T10:06:44;56.17;;;50.08;;
55330;SDS011;58851;42.984;20.336;2022-07-06T10:09:12;23.48;;;22.38;;
55330;SDS011;58851;42.984;20.336;2022-07-06T10:11:47;1999.90;;;999.90;;
55330;SDS011;58851;42.984;20.336;2022-07-06T10:14:21;1999.90;;;999.90;;
55330;SDS011;58851;42.984;20.336;2022-07-06T10:16:52;34.45;;;32.92;;
55330;SDS011;58851;42.984;20.336;2022-07-06T10:19:23;11.80;;;11.20;;
55330;SDS011;58851;42.984;20.336;2022-07-06T10:21:50;29.30;;;28.00;;
55330;SDS011;58851;42.984;20.336;2022-07-06T10:24:17;13.48;;;12.77;;
55330;SDS011;58851;42.984;20.336;2022-07-06T10:26:45;24.90;;;23.80;;
55330;SDS011;58851;42.984;20.336;2022-07-06T10:29:12;28.90;;;27.60;;
55330;SDS011;58851;42.984;20.336;2022-07-06T10:31:40;39.05;;;37.35;;
55330;SDS011;58851;42.984;20.336;2022-07-06T10:34:09;36.00;;;34.40;;
55330;SDS011;58851;42.984;20.336;2022-07-06T10:36:38;1999.90;;;999.90;;
55330;SDS011;58851;42.984;20.336;2022-07-06T10:39:07;528.75;;;277.48;;
55330;SDS011;58851;42.984;20.336;2022-07-06T10:41:52;1999.90;;;999.90;;
55330;SDS011;58851;42.984;20.336;2022-07-06T10:44:20;1999.90;;;999.90;;
55330;SDS011;58851;42.984;20.336;2022-07-06T10:46:51;1999.90;;;999.90;;
55330;SDS011;58851;42.984;20.336;2022-07-06T10:49:24;1999.90;;;999.90;;
55330;SDS011;58851;42.984;20.336;2022-07-06T10:51:52;1999.90;;;999.90;;
55330;SDS011;58851;42.984;20.336;2022-07-06T10:54:18;1999.90;;;999.90;;
55330;SDS011;58851;42.984;20.336;2022-07-06T10:56:49;1999.90;;;999.90;;
55330;SDS011;58851;42.984;20.336;2022-07-06T10:59:16;1999.90;;;999.90;;
55330;SDS011;58851;42.984;20.336;2022-07-06T11:04:34;1999.90;;;999.90;;
55330;SDS011;58851;42.984;20.336;2022-07-06T11:07:06;1999.90;;;999.90;;
55330;SDS011;58851;42.984;20.336;2022-07-06T11:09:40;1999.90;;;999.90;;
55330;SDS011;58851;42.984;20.336;2022-07-06T11:12:16;1999.90;;;999.90;;
55330;SDS011;58851;42.984;20.336;2022-07-06T11:14:47;1999.90;;;999.90;;
55330;SDS011;58851;42.984;20.336;2022-07-06T11:17:14;1999.90;;;999.90;;
55330;SDS011;58851;42.984;20.336;2022-07-06T11:20:08;1999.90;;;999.90;;
55330;SDS011;58851;42.984;20.336;2022-07-06T11:22:36;65.72;;;61.42;;
55330;SDS011;58851;42.984;20.336;2022-07-06T11:25:03;1999.90;;;999.90;;
55330;SDS011;58851;42.984;20.336;2022-07-06T11:27:30;13.55;;;12.85;;
55330;SDS011;58851;42.984;20.336;2022-07-06T11:29:57;13.07;;;12.38;;
55330;SDS011;58851;42.984;20.336;2022-07-06T11:32:23;14.25;;;13.55;;
55330;SDS011;58851;42.984;20.336;2022-07-06T11:34:50;12.70;;;12.10;;
55330;SDS011;58851;42.984;20.336;2022-07-06T11:37:16;77.25;;;71.72;;
55330;SDS011;58851;42.984;20.336;2022-07-06T11:39:43;37.55;;;35.85;;
55330;SDS011;58851;42.984;20.336;2022-07-06T11:42:14;1999.90;;;999.90;;
55330;SDS011;58851;42.984;20.336;2022-07-06T11:44:45;1999.90;;;999.90;;
55330;SDS011;58851;42.984;20.336;2022-07-06T11:47:11;1999.90;;;999.90;;
55330;SDS011;58851;42.984;20.336;2022-07-06T11:49:38;1999.90;;;999.90;;
55330;SDS011;58851;42.984;20.336;2022-07-06T11:52:07;1999.90;;;999.90;;
55330;SDS011;58851;42.984;20.336;2022-07-06T11:54:37;1999.90;;;999.90;;
55330;SDS011;58851;42.984;20.336;2022-07-06T11:57:04;1999.90;;;999.90;;
55330;SDS011;58851;42.984;20.336;2022-07-06T11:59:34;33.83;;;32.33;;
55330;SDS011;58851;42.984;20.336;2022-07-06T12:02:05;63.25;;;60.22;;
55330;SDS011;58851;42.984;20.336;2022-07-06T12:04:32;31.60;;;30.20;;
55330;SDS011;58851;42.984;20.336;2022-07-06T12:06:59;1999.90;;;999.90;;
55330;SDS011;58851;42.984;20.336;2022-07-06T12:09:29;40.65;;;38.63;;
55330;SDS011;58851;42.984;20.336;2022-07-06T12:11:56;1999.90;;;999.90;;
55330;SDS011;58851;42.984;20.336;2022-07-06T12:14:21;1999.90;;;999.90;;
55330;SDS011;58851;42.984;20.336;2022-07-06T12:16:48;1999.90;;;999.90;;
55330;SDS011;58851;42.984;20.336;2022-07-06T12:19:15;1999.90;;;999.90;;
55330;SDS011;58851;42.984;20.336;2022-07-06T12:21:42;1999.90;;;999.90;;
55330;SDS011;58851;42.984;20.336;2022-07-06T12:24:22;1999.90;;;999.90;;
55330;SDS011;58851;42.984;20.336;2022-07-06T12:26:50;1999.90;;;999.90;;
55330;SDS011;58851;42.984;20.336;2022-07-06T12:29:17;1512.35;;;761.15;;
55330;SDS011;58851;42.984;20.336;2022-07-06T12:31:53;1999.90;;;999.90;;
55330;SDS011;58851;42.984;20.336;2022-07-06T12:34:24;1999.90;;;999.90;;
55330;SDS011;58851;42.984;20.336;2022-07-06T12:36:51;1999.90;;;999.90;;
55330;SDS011;58851;42.984;20.336;2022-07-06T12:39:20;1999.90;;;999.90;;
55330;SDS011;58851;42.984;20.336;2022-07-06T12:44:23;173.75;;;28.30;;
55330;SDS011;58851;42.984;20.336;2022-07-06T12:46:50;5.93;;;2.50;;
55330;SDS011;58851;42.984;20.336;2022-07-06T12:49:37;4.70;;;1.92;;
55330;SDS011;58851;42.984;20.336;2022-07-06T12:54:34;4.20;;;3.08;;
55330;SDS011;58851;42.984;20.336;2022-07-06T12:59:55;3.47;;;2.53;;
55330;SDS011;58851;42.984;20.336;2022-07-06T13:02:44;25.35;;;23.45;;
55330;SDS011;58851;42.984;20.336;2022-07-06T13:05:12;16.30;;;3.70;;
55330;SDS011;58851;42.984;20.336;2022-07-06T13:07:46;8.38;;;2.72;;
55330;SDS011;58851;42.984;20.336;2022-07-06T13:10:14;73.50;;;62.78;;
55330;SDS011;58851;42.984;20.336;2022-07-06T13:12:41;5.82;;;3.08;;
55330;SDS011;58851;42.984;20.336;2022-07-06T13:15:07;8.02;;;2.67;;
55330;SDS011;58851;42.984;20.336;2022-07-06T13:17:34;8.43;;;2.42;;
55330;SDS011;58851;42.984;20.336;2022-07-06T13:20:02;3.38;;;1.85;;
55330;SDS011;58851;42.984;20.336;2022-07-06T13:22:29;5.32;;;2.35;;
55330;SDS011;58851;42.984;20.336;2022-07-06T13:24:54;4.20;;;2.30;;
55330;SDS011;58851;42.984;20.336;2022-07-06T13:27:20;6.30;;;1.98;;
55330;SDS011;58851;42.984;20.336;2022-07-06T13:29:46;5.68;;;2.42;;
55330;SDS011;58851;42.984;20.336;2022-07-06T13:32:12;237.35;;;35.97;;
55330;SDS011;58851;42.984;20.336;2022-07-06T13:34:38;173.85;;;50.75;;
55330;SDS011;58851;42.984;20.336;2022-07-06T13:37:04;6.80;;;1.92;;
55330;SDS011;58851;42.984;20.336;2022-07-06T13:39:30;3.60;;;1.75;;
55330;SDS011;58851;42.984;20.336;2022-07-06T13:41:57;6.30;;;1.50;;
55330;SDS011;58851;42.984;20.336;2022-07-06T13:44:23;3.90;;;2.00;;
55330;SDS011;58851;42.984;20.336;2022-07-06T13:46:49;5.22;;;1.92;;
55330;SDS011;58851;42.984;20.336;2022-07-06T13:49:15;3.03;;;1.58;;
55330;SDS011;58851;42.984;20.336;2022-07-06T13:51:41;362.70;;;59.83;;
55330;SDS011;58851;42.984;20.336;2022-07-06T13:54:07;8.77;;;3.25;;
55330;SDS011;58851;42.984;20.336;2022-07-06T13:56:34;6.88;;;2.78;;
55330;SDS011;58851;42.984;20.336;2022-07-06T13:59:01;448.63;;;34.60;;
55330;SDS011;58851;42.984;20.336;2022-07-06T14:01:27;25.52;;;7.53;;
55330;SDS011;58851;42.984;20.336;2022-07-06T14:03:53;4.07;;;1.98;;
55330;SDS011;58851;42.984;20.336;2022-07-06T14:06:19;7.13;;;3.97;;
55330;SDS011;58851;42.984;20.336;2022-07-06T14:08:46;10.18;;;3.25;;
55330;SDS011;58851;42.984;20.336;2022-07-06T14:11:12;6.32;;;2.80;;
55330;SDS011;58851;42.984;20.336;2022-07-06T14:13:38;4.85;;;2.95;;
55330;SDS011;58851;42.984;20.336;2022-07-06T14:16:04;7.85;;;2.03;;